createdAt,value
2023-03-21T00:00:30.598Z,40.38
2023-03-21T00:02:57.762Z,34.05
2023-03-21T00:05:25.121Z,32.22
2023-03-21T00:07:52.683Z,34.28
2023-03-21T00:10:33.024Z,40.47
2023-03-21T00:13:06.579Z,44.85
2023-03-21T00:15:48.510Z,42.25
2023-03-21T00:18:25.999Z,42.17
2023-03-21T00:21:35.294Z,42.92
2023-03-21T00:23:49.478Z,40.80
2023-03-21T00:26:18.216Z,41.45
2023-03-21T00:28:45.518Z,40.55
2023-03-21T00:31:13.598Z,42.50
2023-03-21T00:33:41.248Z,42.20
2023-03-21T00:36:10.720Z,43.05
2023-03-21T00:38:38.739Z,41.25
2023-03-21T00:41:23.408Z,41.17
2023-03-21T00:43:55.810Z,40.42
2023-03-21T00:46:27.615Z,39.80
2023-03-21T00:51:27.714Z,37.63
2023-03-21T00:53:57.288Z,37.38
2023-03-21T00:56:27.782Z,36.38
2023-03-21T00:58:54.781Z,35.10
2023-03-21T01:01:21.759Z,35.22
2023-03-21T01:03:51.167Z,35.55
2023-03-21T01:06:19.781Z,36.38
2023-03-21T01:08:52.630Z,35.63
2023-03-21T01:11:25.770Z,34.27
2023-03-21T01:14:04.052Z,35.55
2023-03-21T01:16:35.496Z,35.97
2023-03-21T01:19:06.957Z,34.50
2023-03-21T01:21:34.863Z,35.45
2023-03-21T01:24:02.575Z,33.42
2023-03-21T01:26:30.007Z,32.75
2023-03-21T01:28:56.973Z,35.95
2023-03-21T01:31:24.161Z,35.25
2023-03-21T01:33:51.850Z,35.05
2023-03-21T01:36:25.597Z,32.63
2023-03-21T01:38:57.632Z,32.45
2023-03-21T01:41:42.455Z,34.25
2023-03-21T01:44:19.834Z,35.47
2023-03-21T01:47:07.267Z,35.95
2023-03-21T01:49:47.976Z,37.72
2023-03-21T01:52:37.475Z,35.78
2023-03-21T01:55:16.802Z,34.47
2023-03-21T01:58:05.885Z,37.75
2023-03-21T02:00:46.672Z,38.50
2023-03-21T02:03:36.146Z,40.97
2023-03-21T02:06:50.696Z,37.75
2023-03-21T02:09:36.730Z,40.47
2023-03-21T02:12:11.194Z,41.20
2023-03-21T02:14:39.704Z,43.03
2023-03-21T02:17:33.071Z,43.22
2023-03-21T02:20:27.676Z,40.33
2023-03-21T02:23:37.313Z,41.63
2023-03-21T02:26:41.872Z,39.90
2023-03-21T02:29:48.302Z,39.10
2023-03-21T02:32:36.687Z,37.30
2023-03-21T02:35:21.998Z,38.95
2023-03-21T02:38:00.787Z,35.78
2023-03-21T02:40:40.230Z,36.45
2023-03-21T02:43:24.063Z,37.35
2023-03-21T02:48:41.317Z,35.70
2023-03-21T02:51:21.176Z,33.63
2023-03-21T02:54:21.992Z,36.70
2023-03-21T02:56:48.867Z,35.80
2023-03-21T02:59:18.506Z,35.88
2023-03-21T03:01:46.459Z,36.40
2023-03-21T03:04:23.406Z,36.88
2023-03-21T03:07:26.424Z,36.38
2023-03-21T03:10:12.401Z,36.13
2023-03-21T03:12:59.639Z,35.90
2023-03-21T03:15:51.949Z,33.45
2023-03-21T03:18:38.360Z,35.85
2023-03-21T03:21:18.993Z,36.53
2023-03-21T03:24:10.576Z,37.80
2023-03-21T03:26:47.649Z,40.13
2023-03-21T03:29:18.853Z,39.45
2023-03-21T03:31:57.681Z,36.75
2023-03-21T03:34:34.494Z,35.50
2023-03-21T03:37:06.293Z,36.72
2023-03-21T03:39:55.855Z,36.38
2023-03-21T03:42:36.537Z,35.53
2023-03-21T03:45:13.865Z,35.05
2023-03-21T03:47:56.436Z,39.60
2023-03-21T03:50:37.152Z,38.33
2023-03-21T03:53:45.722Z,35.95
2023-03-21T03:56:14.024Z,36.35
2023-03-21T03:58:45.960Z,37.83
2023-03-21T04:01:17.688Z,37.33
2023-03-21T04:03:52.970Z,36.10
2023-03-21T04:06:24.396Z,36.20
2023-03-21T04:08:52.189Z,35.70
2023-03-21T04:11:23.210Z,37.30
2023-03-21T04:13:53.423Z,39.40
2023-03-21T04:16:23.471Z,39.20
2023-03-21T04:18:50.823Z,39.05
2023-03-21T04:21:20.017Z,39.53
2023-03-21T04:23:47.071Z,41.15
2023-03-21T04:26:14.456Z,38.75
2023-03-21T04:28:56.534Z,39.17
2023-03-21T04:31:27.258Z,43.63
2023-03-21T04:34:10.135Z,47.08
2023-03-21T04:36:44.426Z,46.55
2023-03-21T04:39:13.198Z,47.45
2023-03-21T04:41:44.129Z,49.17
2023-03-21T04:44:13.659Z,43.88
2023-03-21T04:46:41.066Z,43.22
2023-03-21T04:49:10.841Z,46.72
2023-03-21T04:51:39.196Z,44.47
2023-03-21T04:56:38.161Z,46.03
2023-03-21T04:59:16.478Z,43.00
2023-03-21T05:01:43.990Z,43.42
2023-03-21T05:04:16.410Z,58.15
2023-03-21T05:06:46.032Z,55.10
2023-03-21T05:09:14.722Z,45.03
2023-03-21T05:11:43.159Z,41.78
2023-03-21T05:14:20.638Z,56.35
2023-03-21T05:16:53.516Z,44.05
2023-03-21T05:19:25.046Z,42.05
2023-03-21T05:21:52.708Z,40.60
2023-03-21T05:24:23.158Z,38.65
2023-03-21T05:26:52.472Z,37.97
2023-03-21T05:29:23.316Z,38.90
2023-03-21T05:31:57.261Z,35.97
2023-03-21T05:34:25.743Z,31.70
2023-03-21T05:36:53.718Z,30.08
2023-03-21T05:39:22.585Z,32.20
2023-03-21T05:42:01.335Z,37.80
2023-03-21T05:44:28.746Z,34.70
2023-03-21T05:46:56.022Z,38.63
2023-03-21T05:49:30.771Z,39.63
2023-03-21T05:52:01.026Z,39.80
2023-03-21T05:54:28.477Z,41.03
2023-03-21T05:56:55.979Z,39.83
2023-03-21T05:59:41.895Z,39.92
2023-03-21T06:02:09.674Z,40.22
2023-03-21T06:04:37.652Z,45.78
2023-03-21T06:07:04.929Z,43.75
2023-03-21T06:09:33.792Z,48.00
2023-03-21T06:12:04.403Z,45.47
2023-03-21T06:14:50.118Z,47.67
2023-03-21T06:17:27.066Z,48.05
2023-03-21T06:20:01.197Z,48.70
2023-03-21T06:22:33.512Z,47.70
2023-03-21T06:25:02.858Z,49.60
2023-03-21T06:27:30.239Z,50.65
2023-03-21T06:29:59.984Z,49.10
2023-03-21T06:32:30.012Z,51.22
2023-03-21T06:35:06.738Z,50.10
2023-03-21T06:37:34.213Z,51.53
2023-03-21T06:40:01.376Z,49.35
2023-03-21T06:42:30.146Z,51.33
2023-03-21T06:45:02.151Z,49.22
2023-03-21T06:47:29.463Z,50.13
2023-03-21T06:49:56.827Z,52.80
2023-03-21T06:52:23.971Z,49.97
2023-03-21T06:54:53.132Z,53.80
2023-03-21T06:57:22.123Z,48.65
2023-03-21T06:59:51.353Z,51.47
2023-03-21T07:02:21.049Z,51.40
2023-03-21T07:04:57.783Z,50.17
2023-03-21T07:07:29.821Z,48.50
2023-03-21T07:09:57.035Z,47.83
2023-03-21T07:12:25.713Z,47.85
2023-03-21T07:15:07.394Z,45.42
2023-03-21T07:17:35.000Z,46.67
2023-03-21T07:20:02.059Z,45.58
2023-03-21T07:22:29.077Z,45.13
2023-03-21T07:25:04.679Z,45.60
2023-03-21T07:27:40.687Z,45.00
2023-03-21T07:30:10.783Z,44.78
2023-03-21T07:32:38.268Z,45.63
2023-03-21T07:35:12.858Z,46.25
2023-03-21T07:40:10.221Z,44.55
2023-03-21T07:42:40.322Z,44.80
2023-03-21T07:45:10.398Z,46.78
2023-03-21T07:47:37.366Z,46.28
2023-03-21T07:50:04.857Z,46.05
2023-03-21T07:52:32.928Z,45.63
2023-03-21T07:55:00.456Z,49.53
2023-03-21T07:57:28.361Z,50.08
2023-03-21T07:59:55.783Z,48.17
2023-03-21T08:02:22.827Z,49.83
2023-03-21T08:04:50.021Z,48.72
2023-03-21T08:07:17.263Z,48.03
2023-03-21T08:09:44.722Z,45.35
2023-03-21T08:12:12.015Z,44.65
2023-03-21T08:14:39.633Z,47.17
2023-03-21T08:17:07.225Z,46.20
2023-03-21T08:19:34.285Z,47.65
2023-03-21T08:22:02.819Z,44.88
2023-03-21T08:24:30.249Z,48.03
2023-03-21T08:26:57.478Z,45.28
2023-03-21T08:29:25.227Z,46.50
2023-03-21T08:31:52.430Z,45.50
2023-03-21T08:34:19.703Z,45.88
2023-03-21T08:36:47.207Z,45.85
2023-03-21T08:39:14.666Z,45.55
2023-03-21T08:41:41.951Z,46.95
2023-03-21T08:44:10.332Z,46.28
2023-03-21T08:46:37.400Z,47.75
2023-03-21T08:49:04.477Z,47.55
2023-03-21T08:51:31.941Z,47.28
2023-03-21T08:53:59.225Z,46.40
2023-03-21T08:56:26.442Z,46.30
2023-03-21T08:58:53.420Z,47.38
2023-03-21T09:01:20.476Z,47.63
2023-03-21T09:03:47.492Z,45.30
2023-03-21T09:06:14.645Z,46.53
2023-03-21T09:08:42.241Z,47.85
2023-03-21T09:11:11.040Z,47.30
2023-03-21T09:13:38.092Z,47.63
2023-03-21T09:16:05.623Z,48.88
2023-03-21T09:18:48.967Z,49.72
2023-03-21T09:21:18.509Z,47.42
2023-03-21T09:23:46.466Z,46.25
2023-03-21T09:26:14.730Z,47.13
2023-03-21T09:28:43.205Z,48.38
2023-03-21T09:31:14.668Z,48.55
2023-03-21T09:33:42.588Z,47.50
2023-03-21T09:36:19.100Z,44.90
2023-03-21T09:38:48.184Z,49.65
2023-03-21T09:41:42.325Z,46.53
2023-03-21T09:44:46.348Z,48.92
2023-03-21T09:47:25.289Z,48.35
2023-03-21T09:50:14.154Z,49.80
2023-03-21T09:52:58.863Z,46.25
2023-03-21T09:55:34.993Z,47.85
2023-03-21T09:58:36.703Z,48.67
2023-03-21T10:01:28.298Z,46.58
2023-03-21T10:03:57.723Z,47.15
2023-03-21T10:06:30.703Z,46.17
2023-03-21T10:09:09.745Z,45.38
2023-03-21T10:11:50.450Z,44.85
2023-03-21T10:14:32.115Z,44.80
2023-03-21T10:17:07.306Z,42.80
2023-03-21T10:19:34.279Z,43.67
2023-03-21T10:22:03.758Z,43.58
2023-03-21T10:24:34.298Z,43.88
2023-03-21T10:27:04.341Z,47.05
2023-03-21T10:29:43.341Z,46.03
2023-03-21T10:32:14.318Z,43.90
2023-03-21T10:34:51.349Z,42.58
2023-03-21T10:37:19.858Z,43.67
2023-03-21T10:39:52.302Z,44.05
2023-03-21T10:42:24.864Z,44.33
2023-03-21T10:44:56.691Z,44.13
2023-03-21T10:47:30.518Z,45.08
2023-03-21T10:50:13.465Z,44.25
2023-03-21T10:53:00.883Z,46.03
2023-03-21T10:55:32.203Z,44.30
2023-03-21T10:58:08.894Z,48.03
2023-03-21T11:00:41.469Z,46.70
2023-03-21T11:03:23.274Z,46.17
2023-03-21T11:06:00.653Z,46.13
2023-03-21T11:08:28.425Z,43.50
2023-03-21T11:11:04.744Z,44.40
2023-03-21T11:13:43.522Z,42.90
2023-03-21T11:16:12.314Z,43.40
2023-03-21T11:18:45.509Z,41.35
2023-03-21T11:21:15.507Z,42.33
2023-03-21T11:23:48.465Z,41.42
2023-03-21T11:26:26.363Z,42.53
2023-03-21T11:28:54.377Z,40.75
2023-03-21T11:31:25.038Z,41.30
2023-03-21T11:34:01.545Z,42.03
2023-03-21T11:36:40.941Z,40.72
2023-03-21T11:39:11.150Z,40.67
2023-03-21T11:41:41.928Z,41.47
2023-03-21T11:44:27.141Z,40.97
2023-03-21T11:46:54.827Z,39.80
2023-03-21T11:49:23.551Z,35.90
2023-03-21T11:52:23.309Z,34.53
2023-03-21T11:55:24.119Z,34.15
2023-03-21T11:58:14.521Z,36.92
2023-03-21T12:01:03.574Z,35.00
2023-03-21T12:03:49.254Z,34.50
2023-03-21T12:06:33.862Z,35.33
2023-03-21T12:11:59.335Z,33.47
2023-03-21T12:14:58.491Z,33.40
2023-03-21T12:17:53.319Z,34.47
2023-03-21T12:20:30.261Z,34.70
2023-03-21T12:23:28.552Z,33.10
2023-03-21T12:26:29.364Z,33.97
2023-03-21T12:29:18.198Z,33.65
2023-03-21T12:32:09.271Z,34.47
2023-03-21T12:35:04.283Z,34.08
2023-03-21T12:38:06.196Z,36.28
2023-03-21T12:40:45.872Z,35.20
2023-03-21T12:44:19.485Z,35.30
2023-03-21T12:47:01.007Z,37.10
2023-03-21T12:49:41.652Z,34.95
2023-03-21T12:52:45.150Z,36.08
2023-03-21T12:55:22.833Z,33.05
2023-03-21T12:58:04.602Z,30.13
2023-03-21T13:00:50.526Z,32.25
2023-03-21T13:03:30.272Z,32.08
2023-03-21T13:06:06.712Z,30.25
2023-03-21T13:08:41.991Z,32.70
2023-03-21T13:11:18.308Z,31.92
2023-03-21T13:14:04.429Z,30.92
2023-03-21T13:16:41.575Z,30.20
2023-03-21T13:19:31.224Z,30.63
2023-03-21T13:22:17.501Z,31.35
2023-03-21T13:24:56.543Z,30.00
2023-03-21T13:27:39.473Z,28.73
2023-03-21T13:30:26.668Z,29.63
2023-03-21T13:33:07.590Z,29.10
2023-03-21T13:35:38.682Z,28.45
2023-03-21T13:38:32.628Z,28.33
2023-03-21T13:41:13.614Z,28.33
2023-03-21T13:43:46.504Z,28.50
2023-03-21T13:46:25.934Z,29.73
2023-03-21T13:48:58.843Z,29.45
2023-03-21T13:51:29.563Z,28.70
2023-03-21T13:54:44.961Z,30.17
2023-03-21T13:59:49.911Z,29.77
2023-03-21T14:02:34.187Z,28.05
2023-03-21T14:07:43.704Z,28.05
2023-03-21T14:10:35.070Z,26.20
2023-03-21T14:13:05.484Z,27.90
2023-03-21T14:15:55.000Z,28.83
2023-03-21T14:18:35.358Z,28.58
2023-03-21T14:21:25.391Z,27.48
2023-03-21T14:24:11.545Z,27.33
2023-03-21T14:26:44.594Z,28.30
2023-03-21T14:29:27.299Z,28.05
2023-03-21T14:31:59.960Z,26.25
2023-03-21T14:34:29.942Z,28.25
2023-03-21T14:36:59.105Z,29.00
2023-03-21T14:39:32.802Z,27.23
2023-03-21T14:42:11.511Z,26.95
2023-03-21T14:44:55.239Z,26.92
2023-03-21T14:47:27.984Z,28.58
2023-03-21T14:49:57.434Z,27.98
2023-03-21T14:52:33.126Z,25.77
2023-03-21T14:55:03.761Z,27.75
2023-03-21T14:57:33.673Z,26.38
2023-03-21T15:00:12.444Z,26.48
2023-03-21T15:02:42.799Z,26.83
2023-03-21T15:05:18.042Z,26.85
2023-03-21T15:07:54.812Z,28.58
2023-03-21T15:10:21.811Z,27.42
2023-03-21T15:12:56.298Z,26.33
2023-03-21T15:15:27.600Z,26.50
2023-03-21T15:18:02.268Z,27.75
2023-03-21T15:20:34.513Z,28.00
2023-03-21T15:23:09.190Z,29.08
2023-03-21T15:25:37.715Z,25.52
2023-03-21T15:28:06.272Z,26.38
2023-03-21T15:30:34.700Z,27.73
2023-03-21T15:33:12.961Z,25.73
2023-03-21T15:35:46.038Z,27.40
2023-03-21T15:38:45.264Z,26.35
2023-03-21T15:41:21.217Z,27.13
2023-03-21T15:44:03.049Z,27.58
2023-03-21T15:46:48.558Z,29.52
2023-03-21T15:49:16.115Z,28.50
2023-03-21T15:52:06.616Z,28.88
2023-03-21T15:54:56.920Z,28.63
2023-03-21T15:57:30.282Z,26.23
2023-03-21T16:00:18.565Z,27.20
2023-03-21T16:02:46.272Z,27.10
2023-03-21T16:05:32.816Z,28.95
2023-03-21T16:08:17.517Z,27.58
2023-03-21T16:10:44.624Z,27.38
2023-03-21T16:13:16.668Z,29.52
2023-03-21T16:15:44.380Z,28.98
2023-03-21T16:18:17.102Z,29.33
2023-03-21T16:20:46.776Z,30.17
2023-03-21T16:23:15.782Z,27.88
2023-03-21T16:25:44.222Z,28.63
2023-03-21T16:28:16.733Z,29.73
2023-03-21T16:30:45.170Z,27.40
2023-03-21T16:33:13.487Z,28.60
2023-03-21T16:35:41.373Z,28.48
2023-03-21T16:38:12.878Z,30.90
2023-03-21T16:40:43.484Z,28.75
2023-03-21T16:43:11.574Z,30.05
2023-03-21T16:45:38.638Z,30.20
2023-03-21T16:48:06.202Z,29.08
2023-03-21T16:50:37.104Z,28.95
2023-03-21T16:53:04.718Z,30.02
2023-03-21T16:55:33.595Z,29.15
2023-03-21T16:58:01.535Z,26.60
2023-03-21T17:00:31.438Z,28.65
2023-03-21T17:03:13.157Z,28.45
2023-03-21T17:05:40.568Z,29.30
2023-03-21T17:08:07.862Z,29.63
2023-03-21T17:10:35.917Z,28.67
2023-03-21T17:13:03.887Z,28.42
2023-03-21T17:15:30.896Z,30.00
2023-03-21T17:17:58.638Z,29.30
2023-03-21T17:20:35.018Z,27.83
2023-03-21T17:23:04.123Z,28.98
2023-03-21T17:25:31.517Z,27.45
2023-03-21T17:27:58.508Z,28.80
2023-03-21T17:30:35.645Z,27.40
2023-03-21T17:33:03.140Z,28.13
2023-03-21T17:35:30.237Z,28.00
2023-03-21T17:37:58.615Z,28.00
2023-03-21T17:40:30.049Z,30.08
2023-03-21T17:43:01.368Z,27.63
2023-03-21T17:45:28.641Z,28.00
2023-03-21T17:47:55.916Z,28.70
2023-03-21T17:50:27.598Z,27.83
2023-03-21T17:52:57.465Z,29.73
2023-03-21T17:55:25.034Z,27.63
2023-03-21T17:57:52.878Z,27.33
2023-03-21T18:00:28.195Z,27.10
2023-03-21T18:02:56.216Z,28.65
2023-03-21T18:05:25.488Z,28.88
2023-03-21T18:08:10.421Z,28.20
2023-03-21T18:10:40.245Z,30.27
2023-03-21T18:13:07.663Z,28.75
2023-03-21T18:15:37.732Z,29.80
2023-03-21T18:18:05.897Z,29.55
2023-03-21T18:23:21.311Z,29.20
2023-03-21T18:25:49.084Z,29.98
2023-03-21T18:28:20.470Z,32.05
2023-03-21T18:33:41.033Z,30.98
2023-03-21T18:36:10.126Z,31.45
2023-03-21T18:38:37.426Z,34.08
2023-03-21T18:41:06.112Z,33.35
2023-03-21T18:46:21.394Z,32.92
2023-03-21T18:48:49.234Z,32.50
2023-03-21T18:51:17.683Z,34.20
2023-03-21T18:53:44.866Z,31.33
2023-03-21T18:56:39.502Z,32.72
2023-03-21T18:58:59.364Z,35.45
2023-03-21T19:01:27.314Z,34.47
2023-03-21T19:04:20.446Z,33.35
2023-03-21T19:06:48.021Z,30.65
2023-03-21T19:09:18.527Z,33.60
2023-03-21T19:11:46.087Z,37.22
2023-03-21T19:14:16.986Z,34.10
2023-03-21T19:17:26.445Z,34.83
2023-03-21T19:19:31.388Z,38.25
2023-03-21T19:21:58.809Z,36.85
2023-03-21T19:24:28.524Z,37.63
2023-03-21T19:26:55.716Z,37.17
2023-03-21T19:29:23.783Z,34.65
2023-03-21T19:31:51.793Z,39.25
2023-03-21T19:34:19.029Z,34.20
2023-03-21T19:36:51.604Z,35.55
2023-03-21T19:39:22.790Z,34.25
2023-03-21T19:41:51.642Z,37.80
2023-03-21T19:44:21.652Z,36.60
2023-03-21T19:46:51.057Z,36.53
2023-03-21T19:49:22.613Z,36.20
2023-03-21T19:51:53.194Z,37.78
2023-03-21T19:54:20.807Z,35.15
2023-03-21T19:56:48.463Z,33.97
2023-03-21T19:59:16.058Z,38.42
2023-03-21T20:01:56.408Z,34.65
2023-03-21T20:04:25.917Z,35.70
2023-03-21T20:06:57.056Z,37.25
2023-03-21T20:09:50.559Z,37.42
2023-03-21T20:12:13.982Z,35.67
2023-03-21T20:14:46.435Z,35.72
2023-03-21T20:17:15.328Z,34.85
2023-03-21T20:19:43.284Z,34.50
2023-03-21T20:22:21.843Z,38.88
2023-03-21T20:24:56.228Z,39.58
2023-03-21T20:27:25.180Z,37.63
2023-03-21T20:30:09.921Z,38.97
2023-03-21T20:32:40.145Z,39.22
2023-03-21T20:35:20.189Z,39.63
2023-03-21T20:37:53.557Z,38.70
2023-03-21T20:40:22.136Z,40.78
2023-03-21T20:42:50.305Z,39.13
2023-03-21T20:45:17.579Z,39.10
2023-03-21T20:47:44.729Z,38.00
2023-03-21T20:50:14.109Z,37.80
2023-03-21T20:53:06.430Z,40.35
2023-03-21T20:55:29.763Z,40.08
2023-03-21T20:57:56.783Z,40.20
2023-03-21T21:00:24.677Z,40.95
2023-03-21T21:02:52.017Z,40.63
2023-03-21T21:05:35.430Z,42.22
2023-03-21T21:08:03.580Z,41.70
2023-03-21T21:10:33.542Z,41.00
2023-03-21T21:13:01.078Z,38.90
2023-03-21T21:15:28.262Z,41.00
2023-03-21T21:18:06.704Z,40.28
2023-03-21T21:20:35.860Z,41.80
2023-03-21T21:23:03.060Z,41.28
2023-03-21T21:25:35.015Z,42.17
2023-03-21T21:28:02.924Z,43.17
2023-03-21T21:30:32.588Z,40.47
2023-03-21T21:33:00.980Z,40.60
2023-03-21T21:35:28.321Z,40.40
2023-03-21T21:37:55.342Z,40.78
2023-03-21T21:40:23.415Z,43.63
2023-03-21T21:42:50.877Z,43.03
2023-03-21T21:45:18.983Z,42.47
2023-03-21T21:47:46.588Z,43.17
2023-03-21T21:50:14.421Z,40.30
2023-03-21T21:52:43.951Z,41.25
2023-03-21T21:55:11.139Z,41.30
2023-03-21T21:57:39.831Z,42.28
2023-03-21T22:00:13.758Z,43.30
2023-03-21T22:02:42.362Z,43.28
2023-03-21T22:05:10.636Z,42.10
2023-03-21T22:07:38.062Z,42.25
2023-03-21T22:10:06.689Z,42.72
2023-03-21T22:12:33.949Z,41.28
2023-03-21T22:15:01.020Z,39.28
2023-03-21T22:17:28.115Z,39.67
2023-03-21T22:20:05.017Z,40.47
2023-03-21T22:22:37.254Z,38.92
2023-03-21T22:25:08.081Z,41.13
2023-03-21T22:27:35.245Z,44.15
2023-03-21T22:30:04.918Z,41.30
2023-03-21T22:32:34.132Z,42.83
2023-03-21T22:35:03.801Z,45.58
2023-03-21T22:37:33.784Z,43.70
2023-03-21T22:40:01.344Z,43.45
2023-03-21T22:42:31.894Z,42.60
2023-03-21T22:44:59.079Z,44.03
2023-03-21T22:47:26.278Z,42.28
2023-03-21T22:49:53.426Z,47.28
2023-03-21T22:52:20.490Z,47.55
2023-03-21T22:54:49.135Z,44.78
2023-03-21T22:57:20.271Z,44.53
2023-03-21T22:59:47.550Z,42.17
2023-03-21T23:02:15.709Z,43.50
2023-03-21T23:04:42.821Z,41.75
2023-03-21T23:07:09.975Z,42.00
2023-03-21T23:09:37.200Z,42.78
2023-03-21T23:12:04.657Z,44.40
2023-03-21T23:14:31.618Z,46.17
2023-03-21T23:17:00.249Z,49.53
2023-03-21T23:19:28.856Z,45.75
2023-03-21T23:21:56.244Z,47.33
2023-03-21T23:24:24.008Z,48.22
2023-03-21T23:26:51.627Z,47.50
2023-03-21T23:29:18.688Z,46.50
2023-03-21T23:31:45.761Z,48.40
2023-03-21T23:34:13.461Z,48.45
2023-03-21T23:36:40.881Z,48.63
2023-03-21T23:39:09.022Z,48.72
2023-03-21T23:41:36.134Z,49.72
2023-03-21T23:44:03.366Z,49.20
2023-03-21T23:46:30.878Z,46.25
2023-03-21T23:48:57.922Z,47.30
2023-03-21T23:51:26.034Z,48.63
2023-03-21T23:53:53.452Z,47.25
2023-03-21T23:56:24.802Z,49.15
2023-03-21T23:58:51.954Z,48.47
